sensor_id;sensor_type;location;lat;lon;timestamp;P1;durP1;ratioP1;P2;durP2;ratioP2
78927;SDS011;68322;22.726;113.540;2023-05-20T00:01:45;30.00;;;17.80;;
78927;SDS011;68322;22.726;113.540;2023-05-20T00:04:12;31.85;;;18.77;;
78927;SDS011;68322;22.726;113.540;2023-05-20T00:06:38;28.88;;;16.70;;
78927;SDS011;68322;22.726;113.540;2023-05-20T00:09:05;30.38;;;18.25;;
78927;SDS011;68322;22.726;113.540;2023-05-20T00:11:32;32.75;;;17.85;;
78927;SDS011;68322;22.726;113.540;2023-05-20T00:13:59;24.95;;;17.23;;
78927;SDS011;68322;22.726;113.540;2023-05-20T00:16:25;31.08;;;17.98;;
78927;SDS011;68322;22.726;113.540;2023-05-20T00:18:52;27.33;;;17.38;;
78927;SDS011;68322;22.726;113.540;2023-05-20T00:21:20;25.95;;;17.52;;
78927;SDS011;68322;22.726;113.540;2023-05-20T00:23:47;28.23;;;16.67;;
78927;SDS011;68322;22.726;113.540;2023-05-20T00:26:14;26.05;;;17.00;;
78927;SDS011;68322;22.726;113.540;2023-05-20T00:28:41;30.05;;;16.17;;
78927;SDS011;68322;22.726;113.540;2023-05-20T00:31:07;31.17;;;16.23;;
78927;SDS011;68322;22.726;113.540;2023-05-20T00:33:34;33.00;;;18.05;;
78927;SDS011;68322;22.726;113.540;2023-05-20T00:36:01;26.08;;;16.58;;
78927;SDS011;68322;22.726;113.540;2023-05-20T00:38:28;27.63;;;18.00;;
78927;SDS011;68322;22.726;113.540;2023-05-20T00:40:55;28.20;;;17.08;;
78927;SDS011;68322;22.726;113.540;2023-05-20T00:43:22;29.88;;;17.23;;
78927;SDS011;68322;22.726;113.540;2023-05-20T00:45:50;32.25;;;18.88;;
78927;SDS011;68322;22.726;113.540;2023-05-20T00:48:17;34.60;;;17.70;;
78927;SDS011;68322;22.726;113.540;2023-05-20T00:50:47;30.70;;;15.48;;
78927;SDS011;68322;22.726;113.540;2023-05-20T00:53:15;35.83;;;18.15;;
78927;SDS011;68322;22.726;113.540;2023-05-20T00:55:43;26.10;;;16.15;;
78927;SDS011;68322;22.726;113.540;2023-05-20T00:58:10;41.90;;;17.65;;
78927;SDS011;68322;22.726;113.540;2023-05-20T01:00:37;29.30;;;16.92;;
78927;SDS011;68322;22.726;113.540;2023-05-20T01:03:04;32.35;;;17.75;;
78927;SDS011;68322;22.726;113.540;2023-05-20T01:05:31;28.70;;;17.73;;
78927;SDS011;68322;22.726;113.540;2023-05-20T01:07:58;34.13;;;18.02;;
78927;SDS011;68322;22.726;113.540;2023-05-20T01:10:24;29.70;;;16.65;;
78927;SDS011;68322;22.726;113.540;2023-05-20T01:12:55;31.98;;;18.20;;
78927;SDS011;68322;22.726;113.540;2023-05-20T01:15:24;27.83;;;15.85;;
78927;SDS011;68322;22.726;113.540;2023-05-20T01:17:55;35.38;;;18.45;;
78927;SDS011;68322;22.726;113.540;2023-05-20T01:20:25;27.95;;;17.45;;
78927;SDS011;68322;22.726;113.540;2023-05-20T01:22:54;27.17;;;15.98;;
78927;SDS011;68322;22.726;113.540;2023-05-20T01:25:21;32.47;;;17.88;;
78927;SDS011;68322;22.726;113.540;2023-05-20T01:27:49;26.70;;;17.00;;
78927;SDS011;68322;22.726;113.540;2023-05-20T01:30:17;23.73;;;17.08;;
78927;SDS011;68322;22.726;113.540;2023-05-20T01:32:46;30.58;;;17.50;;
78927;SDS011;68322;22.726;113.540;2023-05-20T01:35:19;27.88;;;15.95;;
78927;SDS011;68322;22.726;113.540;2023-05-20T01:37:47;25.40;;;16.45;;
78927;SDS011;68322;22.726;113.540;2023-05-20T01:40:15;27.88;;;16.33;;
78927;SDS011;68322;22.726;113.540;2023-05-20T01:42:43;28.10;;;17.50;;
78927;SDS011;68322;22.726;113.540;2023-05-20T01:45:10;29.50;;;16.98;;
78927;SDS011;68322;22.726;113.540;2023-05-20T01:47:37;26.00;;;15.05;;
78927;SDS011;68322;22.726;113.540;2023-05-20T01:50:06;29.20;;;16.25;;
78927;SDS011;68322;22.726;113.540;2023-05-20T01:52:33;35.47;;;16.00;;
78927;SDS011;68322;22.726;113.540;2023-05-20T01:55:00;23.73;;;15.38;;
78927;SDS011;68322;22.726;113.540;2023-05-20T01:57:27;25.33;;;15.07;;
78927;SDS011;68322;22.726;113.540;2023-05-20T01:59:54;28.30;;;17.35;;
78927;SDS011;68322;22.726;113.540;2023-05-20T02:02:20;23.65;;;14.48;;
78927;SDS011;68322;22.726;113.540;2023-05-20T02:04:49;24.08;;;14.07;;
78927;SDS011;68322;22.726;113.540;2023-05-20T02:07:16;22.65;;;12.00;;
78927;SDS011;68322;22.726;113.540;2023-05-20T02:09:46;23.70;;;14.55;;
78927;SDS011;68322;22.726;113.540;2023-05-20T02:12:15;23.45;;;15.63;;
78927;SDS011;68322;22.726;113.540;2023-05-20T02:14:45;23.92;;;14.13;;
78927;SDS011;68322;22.726;113.540;2023-05-20T02:17:12;28.05;;;14.60;;
78927;SDS011;68322;22.726;113.540;2023-05-20T02:19:42;25.08;;;14.25;;
78927;SDS011;68322;22.726;113.540;2023-05-20T02:22:09;24.08;;;15.07;;
78927;SDS011;68322;22.726;113.540;2023-05-20T02:24:36;20.50;;;14.52;;
78927;SDS011;68322;22.726;113.540;2023-05-20T02:27:02;23.08;;;13.75;;
78927;SDS011;68322;22.726;113.540;2023-05-20T02:29:30;25.02;;;14.70;;
78927;SDS011;68322;22.726;113.540;2023-05-20T02:32:00;26.90;;;15.40;;
78927;SDS011;68322;22.726;113.540;2023-05-20T02:34:27;28.95;;;15.77;;
78927;SDS011;68322;22.726;113.540;2023-05-20T02:36:55;26.50;;;14.13;;
78927;SDS011;68322;22.726;113.540;2023-05-20T02:39:22;25.90;;;14.82;;
78927;SDS011;68322;22.726;113.540;2023-05-20T02:41:49;28.60;;;16.38;;
78927;SDS011;68322;22.726;113.540;2023-05-20T02:44:15;22.05;;;14.82;;
78927;SDS011;68322;22.726;113.540;2023-05-20T02:46:42;19.98;;;14.05;;
78927;SDS011;68322;22.726;113.540;2023-05-20T02:49:09;23.60;;;15.18;;
78927;SDS011;68322;22.726;113.540;2023-05-20T02:51:36;24.45;;;16.35;;
78927;SDS011;68322;22.726;113.540;2023-05-20T02:54:02;24.13;;;14.45;;
78927;SDS011;68322;22.726;113.540;2023-05-20T02:56:29;28.02;;;16.15;;
78927;SDS011;68322;22.726;113.540;2023-05-20T02:58:56;22.17;;;15.05;;
78927;SDS011;68322;22.726;113.540;2023-05-20T03:01:23;24.25;;;14.13;;
78927;SDS011;68322;22.726;113.540;2023-05-20T03:03:50;19.48;;;13.65;;
78927;SDS011;68322;22.726;113.540;2023-05-20T03:06:17;27.55;;;13.73;;
78927;SDS011;68322;22.726;113.540;2023-05-20T03:08:44;30.75;;;15.82;;
78927;SDS011;68322;22.726;113.540;2023-05-20T03:11:11;27.08;;;13.75;;
78927;SDS011;68322;22.726;113.540;2023-05-20T03:13:37;25.00;;;14.82;;
78927;SDS011;68322;22.726;113.540;2023-05-20T03:16:04;20.27;;;13.68;;
78927;SDS011;68322;22.726;113.540;2023-05-20T03:18:32;21.67;;;13.13;;
78927;SDS011;68322;22.726;113.540;2023-05-20T03:21:01;19.23;;;12.43;;
78927;SDS011;68322;22.726;113.540;2023-05-20T03:23:28;21.77;;;13.65;;
78927;SDS011;68322;22.726;113.540;2023-05-20T03:25:55;22.23;;;14.25;;
78927;SDS011;68322;22.726;113.540;2023-05-20T03:28:21;24.27;;;14.00;;
78927;SDS011;68322;22.726;113.540;2023-05-20T03:30:48;24.38;;;14.80;;
78927;SDS011;68322;22.726;113.540;2023-05-20T03:33:16;30.30;;;15.60;;
78927;SDS011;68322;22.726;113.540;2023-05-20T03:35:43;20.75;;;13.63;;
78927;SDS011;68322;22.726;113.540;2023-05-20T03:38:10;20.23;;;13.73;;
78927;SDS011;68322;22.726;113.540;2023-05-20T03:40:36;20.83;;;14.15;;
78927;SDS011;68322;22.726;113.540;2023-05-20T03:43:03;20.75;;;14.25;;
78927;SDS011;68322;22.726;113.540;2023-05-20T03:45:30;21.20;;;14.73;;
78927;SDS011;68322;22.726;113.540;2023-05-20T03:47:58;24.95;;;13.65;;
78927;SDS011;68322;22.726;113.540;2023-05-20T03:50:25;22.88;;;13.00;;
78927;SDS011;68322;22.726;113.540;2023-05-20T03:52:52;20.98;;;12.95;;
78927;SDS011;68322;22.726;113.540;2023-05-20T03:55:19;23.80;;;14.27;;
78927;SDS011;68322;22.726;113.540;2023-05-20T03:57:45;23.45;;;13.57;;
78927;SDS011;68322;22.726;113.540;2023-05-20T04:00:12;24.40;;;14.30;;
78927;SDS011;68322;22.726;113.540;2023-05-20T04:02:41;21.67;;;13.65;;
78927;SDS011;68322;22.726;113.540;2023-05-20T04:05:07;33.45;;;14.45;;
78927;SDS011;68322;22.726;113.540;2023-05-20T04:07:34;16.40;;;12.07;;
78927;SDS011;68322;22.726;113.540;2023-05-20T04:10:02;21.27;;;11.98;;
78927;SDS011;68322;22.726;113.540;2023-05-20T04:12:29;18.38;;;11.27;;
78927;SDS011;68322;22.726;113.540;2023-05-20T04:14:59;20.00;;;12.35;;
78927;SDS011;68322;22.726;113.540;2023-05-20T04:17:29;20.60;;;12.82;;
78927;SDS011;68322;22.726;113.540;2023-05-20T04:19:56;27.35;;;13.63;;
78927;SDS011;68322;22.726;113.540;2023-05-20T04:22:26;22.08;;;13.25;;
78927;SDS011;68322;22.726;113.540;2023-05-20T04:24:53;21.70;;;13.43;;
78927;SDS011;68322;22.726;113.540;2023-05-20T04:27:20;23.15;;;13.35;;
78927;SDS011;68322;22.726;113.540;2023-05-20T04:29:48;22.70;;;13.40;;
78927;SDS011;68322;22.726;113.540;2023-05-20T04:32:16;22.27;;;13.73;;
78927;SDS011;68322;22.726;113.540;2023-05-20T04:34:43;22.23;;;15.30;;
78927;SDS011;68322;22.726;113.540;2023-05-20T04:37:11;28.88;;;14.52;;
78927;SDS011;68322;22.726;113.540;2023-05-20T04:42:04;21.10;;;13.07;;
78927;SDS011;68322;22.726;113.540;2023-05-20T04:44:33;27.98;;;15.27;;
78927;SDS011;68322;22.726;113.540;2023-05-20T04:47:01;26.38;;;13.52;;
78927;SDS011;68322;22.726;113.540;2023-05-20T04:49:28;20.20;;;13.48;;
78927;SDS011;68322;22.726;113.540;2023-05-20T04:54:23;23.67;;;14.15;;
78927;SDS011;68322;22.726;113.540;2023-05-20T04:56:49;15.90;;;10.25;;
78927;SDS011;68322;22.726;113.540;2023-05-20T04:59:16;16.67;;;9.95;;
78927;SDS011;68322;22.726;113.540;2023-05-20T05:01:43;19.00;;;11.15;;
78927;SDS011;68322;22.726;113.540;2023-05-20T05:04:10;17.85;;;12.55;;
78927;SDS011;68322;22.726;113.540;2023-05-20T05:06:37;20.83;;;14.38;;
78927;SDS011;68322;22.726;113.540;2023-05-20T05:09:05;20.55;;;12.90;;
78927;SDS011;68322;22.726;113.540;2023-05-20T05:11:32;21.00;;;12.40;;
78927;SDS011;68322;22.726;113.540;2023-05-20T05:13:59;25.65;;;11.90;;
78927;SDS011;68322;22.726;113.540;2023-05-20T05:16:26;24.58;;;11.27;;
78927;SDS011;68322;22.726;113.540;2023-05-20T05:18:52;19.10;;;11.82;;
78927;SDS011;68322;22.726;113.540;2023-05-20T05:21:19;19.38;;;12.65;;
78927;SDS011;68322;22.726;113.540;2023-05-20T05:23:46;19.48;;;13.43;;
78927;SDS011;68322;22.726;113.540;2023-05-20T05:26:13;21.33;;;12.80;;
78927;SDS011;68322;22.726;113.540;2023-05-20T05:28:42;23.20;;;13.55;;
78927;SDS011;68322;22.726;113.540;2023-05-20T05:31:09;23.55;;;14.68;;
78927;SDS011;68322;22.726;113.540;2023-05-20T05:33:36;29.00;;;15.38;;
78927;SDS011;68322;22.726;113.540;2023-05-20T05:36:04;27.25;;;14.90;;
78927;SDS011;68322;22.726;113.540;2023-05-20T05:38:32;29.02;;;14.25;;
78927;SDS011;68322;22.726;113.540;2023-05-20T05:40:59;25.13;;;15.30;;
78927;SDS011;68322;22.726;113.540;2023-05-20T05:43:25;26.63;;;14.57;;
78927;SDS011;68322;22.726;113.540;2023-05-20T05:48:20;27.80;;;14.45;;
78927;SDS011;68322;22.726;113.540;2023-05-20T05:50:47;26.50;;;14.23;;
78927;SDS011;68322;22.726;113.540;2023-05-20T05:53:14;26.02;;;14.88;;
78927;SDS011;68322;22.726;113.540;2023-05-20T05:55:46;25.45;;;15.13;;
78927;SDS011;68322;22.726;113.540;2023-05-20T05:58:13;22.33;;;13.93;;
78927;SDS011;68322;22.726;113.540;2023-05-20T06:00:40;24.65;;;13.80;;
78927;SDS011;68322;22.726;113.540;2023-05-20T06:03:08;26.58;;;15.43;;
78927;SDS011;68322;22.726;113.540;2023-05-20T06:05:35;22.00;;;12.35;;
78927;SDS011;68322;22.726;113.540;2023-05-20T06:08:02;27.30;;;14.75;;
78927;SDS011;68322;22.726;113.540;2023-05-20T06:10:29;25.52;;;14.20;;
78927;SDS011;68322;22.726;113.540;2023-05-20T06:12:55;22.17;;;12.98;;
78927;SDS011;68322;22.726;113.540;2023-05-20T06:15:25;19.42;;;11.50;;
78927;SDS011;68322;22.726;113.540;2023-05-20T06:17:53;22.42;;;13.52;;
78927;SDS011;68322;22.726;113.540;2023-05-20T06:20:20;22.70;;;11.93;;
78927;SDS011;68322;22.726;113.540;2023-05-20T06:22:47;26.90;;;14.20;;
78927;SDS011;68322;22.726;113.540;2023-05-20T06:25:14;24.30;;;13.02;;
78927;SDS011;68322;22.726;113.540;2023-05-20T06:27:43;22.85;;;12.80;;
78927;SDS011;68322;22.726;113.540;2023-05-20T06:30:11;21.25;;;13.40;;
78927;SDS011;68322;22.726;113.540;2023-05-20T06:32:38;24.08;;;13.82;;
78927;SDS011;68322;22.726;113.540;2023-05-20T06:35:05;21.05;;;13.32;;
78927;SDS011;68322;22.726;113.540;2023-05-20T06:37:34;23.55;;;11.98;;
78927;SDS011;68322;22.726;113.540;2023-05-20T06:40:02;26.80;;;13.07;;
78927;SDS011;68322;22.726;113.540;2023-05-20T06:42:29;28.67;;;12.90;;
78927;SDS011;68322;22.726;113.540;2023-05-20T06:44:56;23.08;;;13.10;;
78927;SDS011;68322;22.726;113.540;2023-05-20T06:47:23;19.23;;;11.98;;
78927;SDS011;68322;22.726;113.540;2023-05-20T06:49:50;20.73;;;11.55;;
78927;SDS011;68322;22.726;113.540;2023-05-20T06:52:16;20.40;;;12.65;;
78927;SDS011;68322;22.726;113.540;2023-05-20T06:54:43;20.33;;;12.52;;
78927;SDS011;68322;22.726;113.540;2023-05-20T06:57:10;20.25;;;12.88;;
78927;SDS011;68322;22.726;113.540;2023-05-20T06:59:38;21.80;;;12.07;;
78927;SDS011;68322;22.726;113.540;2023-05-20T07:02:06;21.25;;;12.80;;
78927;SDS011;68322;22.726;113.540;2023-05-20T07:04:33;24.20;;;12.70;;
78927;SDS011;68322;22.726;113.540;2023-05-20T07:07:01;23.00;;;12.48;;
78927;SDS011;68322;22.726;113.540;2023-05-20T07:09:29;18.52;;;13.05;;
78927;SDS011;68322;22.726;113.540;2023-05-20T07:11:56;22.23;;;12.25;;
78927;SDS011;68322;22.726;113.540;2023-05-20T07:14:23;20.70;;;11.88;;
78927;SDS011;68322;22.726;113.540;2023-05-20T07:16:50;18.63;;;11.85;;
78927;SDS011;68322;22.726;113.540;2023-05-20T07:19:16;23.88;;;11.38;;
78927;SDS011;68322;22.726;113.540;2023-05-20T07:21:43;19.13;;;11.57;;
78927;SDS011;68322;22.726;113.540;2023-05-20T07:24:10;24.98;;;11.50;;
78927;SDS011;68322;22.726;113.540;2023-05-20T07:26:37;17.00;;;11.68;;
78927;SDS011;68322;22.726;113.540;2023-05-20T07:29:04;23.08;;;11.55;;
78927;SDS011;68322;22.726;113.540;2023-05-20T07:31:30;21.45;;;11.45;;
78927;SDS011;68322;22.726;113.540;2023-05-20T07:33:59;18.33;;;11.30;;
78927;SDS011;68322;22.726;113.540;2023-05-20T07:36:27;19.48;;;11.95;;
78927;SDS011;68322;22.726;113.540;2023-05-20T07:38:56;22.92;;;12.27;;
78927;SDS011;68322;22.726;113.540;2023-05-20T07:41:24;18.80;;;11.93;;
78927;SDS011;68322;22.726;113.540;2023-05-20T07:43:51;19.77;;;11.38;;
78927;SDS011;68322;22.726;113.540;2023-05-20T07:46:19;23.38;;;11.07;;
78927;SDS011;68322;22.726;113.540;2023-05-20T07:48:45;19.35;;;11.82;;
78927;SDS011;68322;22.726;113.540;2023-05-20T07:51:12;21.65;;;12.68;;
78927;SDS011;68322;22.726;113.540;2023-05-20T07:53:41;19.40;;;11.38;;
78927;SDS011;68322;22.726;113.540;2023-05-20T07:56:08;20.35;;;12.10;;
78927;SDS011;68322;22.726;113.540;2023-05-20T07:58:36;23.73;;;12.27;;
78927;SDS011;68322;22.726;113.540;2023-05-20T08:01:03;22.33;;;11.80;;
78927;SDS011;68322;22.726;113.540;2023-05-20T08:03:30;23.38;;;12.23;;
78927;SDS011;68322;22.726;113.540;2023-05-20T08:05:56;18.25;;;10.98;;
78927;SDS011;68322;22.726;113.540;2023-05-20T08:08:23;19.90;;;11.93;;
78927;SDS011;68322;22.726;113.540;2023-05-20T08:10:51;27.05;;;11.43;;
78927;SDS011;68322;22.726;113.540;2023-05-20T08:13:17;20.30;;;12.07;;
78927;SDS011;68322;22.726;113.540;2023-05-20T08:15:44;19.50;;;11.98;;
78927;SDS011;68322;22.726;113.540;2023-05-20T08:18:13;19.45;;;11.57;;
78927;SDS011;68322;22.726;113.540;2023-05-20T08:20:40;23.13;;;12.13;;
78927;SDS011;68322;22.726;113.540;2023-05-20T08:23:07;25.17;;;12.63;;
78927;SDS011;68322;22.726;113.540;2023-05-20T08:25:34;23.17;;;11.77;;
78927;SDS011;68322;22.726;113.540;2023-05-20T08:28:02;17.65;;;10.57;;
78927;SDS011;68322;22.726;113.540;2023-05-20T08:30:31;22.92;;;10.80;;
78927;SDS011;68322;22.726;113.540;2023-05-20T08:32:58;19.83;;;11.43;;
78927;SDS011;68322;22.726;113.540;2023-05-20T08:35:25;18.13;;;10.90;;
78927;SDS011;68322;22.726;113.540;2023-05-20T08:37:52;20.30;;;10.98;;
78927;SDS011;68322;22.726;113.540;2023-05-20T08:40:21;21.67;;;11.45;;
78927;SDS011;68322;22.726;113.540;2023-05-20T08:42:48;17.55;;;11.32;;
78927;SDS011;68322;22.726;113.540;2023-05-20T08:45:18;25.08;;;11.40;;
78927;SDS011;68322;22.726;113.540;2023-05-20T08:47:48;21.63;;;11.73;;
78927;SDS011;68322;22.726;113.540;2023-05-20T08:50:15;18.58;;;10.02;;
78927;SDS011;68322;22.726;113.540;2023-05-20T08:52:42;24.00;;;11.98;;
78927;SDS011;68322;22.726;113.540;2023-05-20T08:55:14;20.65;;;12.23;;
78927;SDS011;68322;22.726;113.540;2023-05-20T08:57:41;23.83;;;12.98;;
78927;SDS011;68322;22.726;113.540;2023-05-20T09:00:10;21.08;;;12.02;;
78927;SDS011;68322;22.726;113.540;2023-05-20T09:02:40;17.75;;;10.40;;
78927;SDS011;68322;22.726;113.540;2023-05-20T09:05:08;20.92;;;11.38;;
78927;SDS011;68322;22.726;113.540;2023-05-20T09:07:36;20.23;;;11.60;;
78927;SDS011;68322;22.726;113.540;2023-05-20T09:10:03;21.63;;;11.63;;
78927;SDS011;68322;22.726;113.540;2023-05-20T09:12:30;22.23;;;12.75;;
78927;SDS011;68322;22.726;113.540;2023-05-20T09:14:57;24.50;;;12.27;;
78927;SDS011;68322;22.726;113.540;2023-05-20T09:17:24;20.95;;;11.63;;
78927;SDS011;68322;22.726;113.540;2023-05-20T09:22:22;20.20;;;11.25;;
78927;SDS011;68322;22.726;113.540;2023-05-20T09:24:56;22.02;;;12.00;;
78927;SDS011;68322;22.726;113.540;2023-05-20T09:27:24;22.08;;;11.20;;
78927;SDS011;68322;22.726;113.540;2023-05-20T09:29:51;20.73;;;12.00;;
78927;SDS011;68322;22.726;113.540;2023-05-20T09:32:19;21.33;;;11.68;;
78927;SDS011;68322;22.726;113.540;2023-05-20T09:34:48;21.83;;;11.77;;
78927;SDS011;68322;22.726;113.540;2023-05-20T09:37:17;25.05;;;11.70;;
78927;SDS011;68322;22.726;113.540;2023-05-20T09:42:21;22.48;;;11.32;;
78927;SDS011;68322;22.726;113.540;2023-05-20T09:44:51;22.83;;;12.80;;
78927;SDS011;68322;22.726;113.540;2023-05-20T09:47:18;21.30;;;11.35;;
78927;SDS011;68322;22.726;113.540;2023-05-20T09:49:45;20.05;;;11.57;;
78927;SDS011;68322;22.726;113.540;2023-05-20T09:52:14;21.95;;;10.82;;
78927;SDS011;68322;22.726;113.540;2023-05-20T09:54:41;18.63;;;10.07;;
78927;SDS011;68322;22.726;113.540;2023-05-20T09:57:11;18.25;;;10.00;;
78927;SDS011;68322;22.726;113.540;2023-05-20T09:59:39;15.60;;;10.40;;
78927;SDS011;68322;22.726;113.540;2023-05-20T10:02:06;16.63;;;9.73;;
78927;SDS011;68322;22.726;113.540;2023-05-20T10:04:34;14.77;;;9.98;;
78927;SDS011;68322;22.726;113.540;2023-05-20T10:12:37;18.88;;;9.88;;
78927;SDS011;68322;22.726;113.540;2023-05-20T10:20:32;17.58;;;9.00;;
78927;SDS011;68322;22.726;113.540;2023-05-20T10:23:18;16.52;;;8.82;;
78927;SDS011;68322;22.726;113.540;2023-05-20T10:25:52;19.65;;;9.55;;
78927;SDS011;68322;22.726;113.540;2023-05-20T10:30:56;18.40;;;9.27;;
78927;SDS011;68322;22.726;113.540;2023-05-20T10:33:24;18.13;;;9.48;;
78927;SDS011;68322;22.726;113.540;2023-05-20T10:35:56;16.77;;;9.10;;
78927;SDS011;68322;22.726;113.540;2023-05-20T10:38:24;15.38;;;9.40;;
78927;SDS011;68322;22.726;113.540;2023-05-20T10:40:51;18.85;;;9.05;;
78927;SDS011;68322;22.726;113.540;2023-05-20T10:43:24;16.77;;;8.65;;
78927;SDS011;68322;22.726;113.540;2023-05-20T10:50:53;19.52;;;9.20;;
78927;SDS011;68322;22.726;113.540;2023-05-20T10:53:21;14.13;;;8.43;;
78927;SDS011;68322;22.726;113.540;2023-05-20T10:55:49;18.10;;;9.50;;
78927;SDS011;68322;22.726;113.540;2023-05-20T10:58:17;15.00;;;9.13;;
78927;SDS011;68322;22.726;113.540;2023-05-20T11:00:44;19.08;;;9.27;;
78927;SDS011;68322;22.726;113.540;2023-05-20T11:05:41;18.67;;;9.90;;
78927;SDS011;68322;22.726;113.540;2023-05-20T11:08:08;17.90;;;10.15;;
78927;SDS011;68322;22.726;113.540;2023-05-20T11:10:35;14.90;;;9.80;;
78927;SDS011;68322;22.726;113.540;2023-05-20T11:13:02;19.50;;;10.57;;
78927;SDS011;68322;22.726;113.540;2023-05-20T11:15:30;18.83;;;9.70;;
78927;SDS011;68322;22.726;113.540;2023-05-20T11:17:59;20.40;;;9.93;;
78927;SDS011;68322;22.726;113.540;2023-05-20T11:20:26;14.10;;;9.23;;
78927;SDS011;68322;22.726;113.540;2023-05-20T11:22:53;17.60;;;9.55;;
78927;SDS011;68322;22.726;113.540;2023-05-20T11:25:22;15.30;;;9.20;;
78927;SDS011;68322;22.726;113.540;2023-05-20T11:27:49;17.35;;;9.98;;
78927;SDS011;68322;22.726;113.540;2023-05-20T11:30:16;21.75;;;11.05;;
78927;SDS011;68322;22.726;113.540;2023-05-20T11:33:00;16.67;;;9.75;;
78927;SDS011;68322;22.726;113.540;2023-05-20T11:35:27;16.70;;;10.05;;
78927;SDS011;68322;22.726;113.540;2023-05-20T11:37:55;19.50;;;10.27;;
78927;SDS011;68322;22.726;113.540;2023-05-20T11:40:25;26.27;;;10.63;;
78927;SDS011;68322;22.726;113.540;2023-05-20T11:42:55;22.25;;;11.73;;
78927;SDS011;68322;22.726;113.540;2023-05-20T11:45:23;24.73;;;11.90;;
78927;SDS011;68322;22.726;113.540;2023-05-20T11:50:26;19.67;;;12.57;;
78927;SDS011;68322;22.726;113.540;2023-05-20T11:52:56;22.10;;;12.73;;
78927;SDS011;68322;22.726;113.540;2023-05-20T11:55:23;24.05;;;12.48;;
78927;SDS011;68322;22.726;113.540;2023-05-20T11:57:50;20.70;;;11.82;;
78927;SDS011;68322;22.726;113.540;2023-05-20T12:00:19;20.98;;;11.40;;
78927;SDS011;68322;22.726;113.540;2023-05-20T12:02:46;25.90;;;13.23;;
78927;SDS011;68322;22.726;113.540;2023-05-20T12:05:12;21.67;;;11.95;;
78927;SDS011;68322;22.726;113.540;2023-05-20T12:07:44;21.95;;;12.45;;
78927;SDS011;68322;22.726;113.540;2023-05-20T12:10:13;21.95;;;13.55;;
78927;SDS011;68322;22.726;113.540;2023-05-20T12:12:40;24.15;;;12.07;;
78927;SDS011;68322;22.726;113.540;2023-05-20T12:15:08;22.00;;;11.27;;
78927;SDS011;68322;22.726;113.540;2023-05-20T12:17:48;23.52;;;13.07;;
78927;SDS011;68322;22.726;113.540;2023-05-20T12:20:15;24.02;;;12.02;;
78927;SDS011;68322;22.726;113.540;2023-05-20T12:22:43;22.13;;;11.85;;
78927;SDS011;68322;22.726;113.540;2023-05-20T12:25:10;24.60;;;13.38;;
78927;SDS011;68322;22.726;113.540;2023-05-20T12:27:39;24.52;;;12.68;;
78927;SDS011;68322;22.726;113.540;2023-05-20T12:30:06;22.20;;;11.70;;
78927;SDS011;68322;22.726;113.540;2023-05-20T12:32:36;23.33;;;12.23;;
78927;SDS011;68322;22.726;113.540;2023-05-20T12:35:04;25.45;;;12.98;;
78927;SDS011;68322;22.726;113.540;2023-05-20T12:39:58;22.55;;;11.75;;
78927;SDS011;68322;22.726;113.540;2023-05-20T12:42:28;22.15;;;12.30;;
78927;SDS011;68322;22.726;113.540;2023-05-20T12:47:21;24.80;;;13.55;;
78927;SDS011;68322;22.726;113.540;2023-05-20T12:49:48;24.38;;;12.45;;
78927;SDS011;68322;22.726;113.540;2023-05-20T12:52:14;22.85;;;14.10;;
78927;SDS011;68322;22.726;113.540;2023-05-20T12:54:41;17.67;;;10.57;;
78927;SDS011;68322;22.726;113.540;2023-05-20T12:57:08;24.48;;;12.57;;
78927;SDS011;68322;22.726;113.540;2023-05-20T12:59:36;25.10;;;12.43;;
78927;SDS011;68322;22.726;113.540;2023-05-20T13:02:03;20.73;;;13.32;;
78927;SDS011;68322;22.726;113.540;2023-05-20T13:04:30;17.17;;;11.45;;
78927;SDS011;68322;22.726;113.540;2023-05-20T13:06:57;21.38;;;12.60;;
78927;SDS011;68322;22.726;113.540;2023-05-20T13:09:23;18.98;;;11.30;;
78927;SDS011;68322;22.726;113.540;2023-05-20T13:11:50;20.55;;;11.95;;
78927;SDS011;68322;22.726;113.540;2023-05-20T13:14:17;17.35;;;11.60;;
78927;SDS011;68322;22.726;113.540;2023-05-20T13:16:44;23.08;;;12.75;;
78927;SDS011;68322;22.726;113.540;2023-05-20T13:19:11;18.45;;;12.65;;
78927;SDS011;68322;22.726;113.540;2023-05-20T13:21:37;22.98;;;11.80;;
78927;SDS011;68322;22.726;113.540;2023-05-20T13:24:04;21.45;;;11.90;;
78927;SDS011;68322;22.726;113.540;2023-05-20T13:26:31;28.48;;;13.20;;
78927;SDS011;68322;22.726;113.540;2023-05-20T13:28:58;20.80;;;11.23;;
78927;SDS011;68322;22.726;113.540;2023-05-20T13:31:25;22.83;;;12.27;;
78927;SDS011;68322;22.726;113.540;2023-05-20T13:33:51;18.83;;;11.05;;
78927;SDS011;68322;22.726;113.540;2023-05-20T13:36:19;23.75;;;12.45;;
78927;SDS011;68322;22.726;113.540;2023-05-20T13:38:46;24.83;;;12.25;;
78927;SDS011;68322;22.726;113.540;2023-05-20T13:41:13;21.95;;;12.60;;
78927;SDS011;68322;22.726;113.540;2023-05-20T13:43:40;22.25;;;12.43;;
78927;SDS011;68322;22.726;113.540;2023-05-20T13:46:07;25.48;;;12.40;;
78927;SDS011;68322;22.726;113.540;2023-05-20T13:48:34;21.75;;;12.00;;
78927;SDS011;68322;22.726;113.540;2023-05-20T13:51:01;21.05;;;11.88;;
78927;SDS011;68322;22.726;113.540;2023-05-20T13:53:28;24.52;;;12.77;;
78927;SDS011;68322;22.726;113.540;2023-05-20T13:55:54;21.70;;;12.75;;
78927;SDS011;68322;22.726;113.540;2023-05-20T13:58:21;24.45;;;12.43;;
78927;SDS011;68322;22.726;113.540;2023-05-20T14:00:48;26.90;;;12.70;;
78927;SDS011;68322;22.726;113.540;2023-05-20T14:03:15;19.02;;;10.57;;
78927;SDS011;68322;22.726;113.540;2023-05-20T14:05:42;25.60;;;12.13;;
78927;SDS011;68322;22.726;113.540;2023-05-20T14:08:08;22.73;;;13.07;;
78927;SDS011;68322;22.726;113.540;2023-05-20T14:10:35;21.98;;;12.15;;
78927;SDS011;68322;22.726;113.540;2023-05-20T14:13:02;24.02;;;13.45;;
78927;SDS011;68322;22.726;113.540;2023-05-20T14:15:29;24.88;;;12.73;;
78927;SDS011;68322;22.726;113.540;2023-05-20T14:17:56;23.15;;;12.55;;
78927;SDS011;68322;22.726;113.540;2023-05-20T14:20:23;23.83;;;12.60;;
78927;SDS011;68322;22.726;113.540;2023-05-20T14:22:52;22.88;;;13.05;;
78927;SDS011;68322;22.726;113.540;2023-05-20T14:25:19;22.88;;;12.32;;
78927;SDS011;68322;22.726;113.540;2023-05-20T14:27:47;22.23;;;12.32;;
78927;SDS011;68322;22.726;113.540;2023-05-20T14:30:14;20.52;;;13.13;;
78927;SDS011;68322;22.726;113.540;2023-05-20T14:32:40;25.52;;;12.80;;
78927;SDS011;68322;22.726;113.540;2023-05-20T14:35:07;28.05;;;11.75;;
78927;SDS011;68322;22.726;113.540;2023-05-20T14:37:34;21.58;;;12.77;;
78927;SDS011;68322;22.726;113.540;2023-05-20T14:40:02;22.83;;;12.30;;
78927;SDS011;68322;22.726;113.540;2023-05-20T14:44:56;25.80;;;12.43;;